Time;durP1;ratioP1;P1;durP2;ratioP2;P2;SDS_P1;SDS_P2;PMS_P1;PMS_P2;Temp;Humidity;BMP_temperature;BMP_pressure;BME280_temperature;BME280_humidity;BME280_pressure;Samples;Min_cycle;Max_cycle;Signal;HPM_P1;HPM_P2
2023/02/12 00:01:12;;;;;;;;;45.20;36.00;;;;;9.42;63.26;99935.81;7736830;22;96320;-70
2023/02/12 00:04:15;;;;;;;;;46.00;38.00;;;;;9.40;63.30;99938.69;7737007;22;97129;-70
2023/02/12 00:07:20;;;;;;;;;40.75;34.75;;;;;9.41;63.36;99939.53;7736853;22;96253;-69
2023/02/12 00:10:24;;;;;;;;;45.00;36.00;;;;;9.36;63.53;99932.03;7736987;22;96338;-70
2023/02/12 00:13:30;;;;;;;;;44.60;36.00;;;;;9.32;63.81;99933.44;7737077;22;96272;-70
2023/02/12 00:16:34;;;;;;;;;43.00;35.25;;;;;9.25;64.14;99935.19;7737147;22;96499;-70
2023/02/12 00:19:37;;;;;;;;;45.40;36.40;;;;;9.25;64.10;99945.13;7736596;22;96335;-70
2023/02/12 00:22:41;;;;;;;;;47.20;39.00;;;;;9.27;63.98;99943.94;7736788;22;96400;-70
2023/02/12 00:25:45;;;;;;;;;41.80;35.00;;;;;9.34;63.55;99955.59;7737103;22;96722;-70
2023/02/12 00:28:49;;;;;;;;;44.00;35.00;;;;;9.36;63.74;99945.47;7709880;22;97497;-70
2023/02/12 00:31:52;;;;;;;;;43.00;36.00;;;;;9.44;63.39;99939.16;7683834;22;96504;-70
2023/02/12 00:34:56;;;;;;;;;45.00;36.00;;;;;9.48;63.04;99948.53;7736736;22;96378;-70
2023/02/12 00:38:00;;;;;;;;;47.40;38.00;;;;;9.47;63.29;99953.09;7736382;22;97404;-70
2023/02/12 00:41:04;;;;;;;;;43.80;35.80;;;;;9.40;63.53;99951.31;7736641;22;96274;-70
2023/02/12 00:44:07;;;;;;;;;45.00;37.00;;;;;9.44;63.29;99945.38;7709012;22;96447;-70
2023/02/12 00:47:11;;;;;;;;;45.00;36.25;;;;;9.47;63.23;99942.31;7736002;22;96295;-70
2023/02/12 00:50:14;;;;;;;;;46.75;36.75;;;;;9.33;63.88;99945.88;7736488;22;96340;-69
2023/02/12 00:53:19;;;;;;;;;48.50;37.50;;;;;9.30;64.04;99956.16;7736006;22;96463;-69
2023/02/12 00:56:22;;;;;;;;;38.60;33.00;;;;;9.35;63.81;99962.66;7709600;22;97507;-70
2023/02/12 00:59:27;;;;;;;;;45.00;34.00;;;;;9.29;63.83;99952.63;7736363;22;96272;-70
2023/02/12 01:02:31;;;;;;;;;43.60;33.20;;;;;9.31;64.13;99965.91;7709018;22;96208;-70
2023/02/12 01:05:35;;;;;;;;;43.00;35.00;;;;;9.32;64.13;99963.03;7736645;22;96107;-70
2023/02/12 01:08:40;;;;;;;;;45.00;35.00;;;;;9.28;64.27;99966.28;7736809;22;96154;-70
2023/02/12 01:11:43;;;;;;;;;44.00;36.00;;;;;9.27;64.42;99968.13;7736646;22;96196;-70
2023/02/12 01:14:47;;;;;;;;;41.60;34.00;;;;;9.33;64.28;99971.94;7709481;22;96929;-70
2023/02/12 01:17:52;;;;;;;;;44.75;36.50;;;;;9.37;64.09;99968.69;7736215;22;96739;-69
2023/02/12 01:20:57;;;;;;;;;43.60;35.00;;;;;9.43;63.72;99980.56;7736779;22;96322;-70
2023/02/12 01:24:02;;;;;;;;;42.50;34.50;;;;;9.39;63.71;99974.69;7709478;22;96206;-70
2023/02/12 01:27:06;;;;;;;;;42.60;35.00;;;;;9.39;64.04;99980.09;7736191;22;96435;-70
2023/02/12 01:30:13;;;;;;;;;42.40;35.00;;;;;9.35;64.34;99984.19;7736461;22;96870;-70
2023/02/12 01:33:16;;;;;;;;;42.00;35.00;;;;;9.36;64.36;99988.53;7736255;22;96249;-69
2023/02/12 01:36:20;;;;;;;;;42.50;35.25;;;;;9.40;64.10;99986.31;7709388;22;96853;-70
2023/02/12 01:39:26;;;;;;;;;44.40;35.00;;;;;9.42;64.04;99993.19;7736388;22;96240;-70
2023/02/12 01:42:30;;;;;;;;;40.20;33.60;;;;;9.42;63.98;99997.72;7683310;22;96770;-71
2023/02/12 01:45:49;;;;;;;;;41.00;33.20;;;;;9.41;64.04;99996.91;7736722;22;96350;-70
2023/02/12 01:48:52;;;;;;;;;43.50;34.00;;;;;9.42;64.12;99997.72;7708799;22;97618;-70
2023/02/12 01:52:01;;;;;;;;;43.60;35.60;;;;;9.40;63.97;99994.38;7735921;22;96974;-70
2023/02/12 01:55:09;;;;;;;;;43.80;35.00;;;;;9.45;63.79;100002.72;7736646;22;96528;-70
2023/02/12 01:58:14;;;;;;;;;42.75;35.75;;;;;9.46;63.90;100001.72;7735783;22;96243;-70
2023/02/12 02:01:22;;;;;;;;;44.50;36.00;;;;;9.45;63.78;100000.88;7708836;22;96180;-69
2023/02/12 02:04:33;;;;;;;;;37.80;33.00;;;;;9.43;63.68;100000.22;7709065;22;96995;-70
2023/02/12 02:07:36;;;;;;;;;47.00;38.00;;;;;9.36;64.25;100009.25;7709332;22;96368;-70
2023/02/12 02:10:41;;;;;;;;;42.33;35.00;;;;;9.42;63.94;100019.25;7736383;22;96470;-70
2023/02/12 02:17:30;;;;;;;;;43.00;36.00;;;;;9.45;63.79;100021.56;7736247;22;96329;-70
2023/02/12 02:20:54;;;;;;;;;42.50;35.00;;;;;9.45;63.81;100025.09;7708318;22;96188;-70
2023/02/12 02:24:34;;;;;;;;;43.60;35.00;;;;;9.50;63.54;100032.63;7709198;22;96355;-69
2023/02/12 02:27:49;;;;;;;;;45.40;36.40;;;;;9.52;63.50;100041.34;7735798;22;96381;-70
2023/02/12 02:30:58;;;;;;;;;44.40;35.00;;;;;9.53;63.28;100056.47;7735898;22;96687;-70
2023/02/12 02:34:08;;;;;;;;;40.60;33.20;;;;;9.54;63.38;100050.91;7736062;22;96351;-70
2023/02/12 02:37:18;;;;;;;;;41.00;33.50;;;;;9.57;63.35;100065.84;7735651;22;96266;-70
2023/02/12 02:40:27;;;;;;;;;41.50;34.00;;;;;9.57;63.40;100066.69;7735327;22;96449;-70
2023/02/12 02:43:36;;;;;;;;;39.00;33.33;;;;;9.63;62.79;100075.06;7735849;22;96523;-70
2023/02/12 02:46:46;;;;;;;;;38.80;32.40;;;;;9.62;63.36;100081.44;7735823;22;96365;-70
2023/02/12 02:49:54;;;;;;;;;37.00;32.80;;;;;9.60;63.35;100078.09;7736125;22;96232;-70
2023/02/12 02:53:04;;;;;;;;;37.20;32.00;;;;;9.74;63.26;100082.63;7707957;22;98747;-70
2023/02/12 02:56:14;;;;;;;;;36.60;32.00;;;;;9.76;62.97;100086.81;7736040;22;96826;-70
2023/02/12 02:59:24;;;;;;;;;42.00;34.50;;;;;9.81;63.05;100086.25;7735148;22;96164;-70
2023/02/12 03:02:32;;;;;;;;;38.60;33.00;;;;;9.58;62.57;100060.25;7709302;22;96693;-70
2023/02/12 03:05:42;;;;;;;;;43.20;34.20;;;;;9.84;62.84;100099.34;7710131;22;96895;-70
2023/02/12 03:08:51;;;;;;;;;39.00;33.00;;;;;9.83;62.94;100105.75;7737884;22;96184;-70
2023/02/12 03:11:59;;;;;;;;;36.40;32.60;;;;;9.84;62.78;100116.34;7737492;22;96165;-70
2023/02/12 03:15:08;;;;;;;;;40.20;33.00;;;;;9.88;62.52;100114.09;7737585;22;96143;-70
2023/02/12 03:18:19;;;;;;;;;35.00;31.33;;;;;9.94;62.11;100118.75;7737269;22;97510;-69
2023/02/12 03:21:28;;;;;;;;;35.60;30.00;;;;;9.95;61.99;100121.25;7710793;22;96826;-70
2023/02/12 03:24:36;;;;;;;;;35.00;32.00;;;;;9.96;61.89;100130.19;7737757;22;97490;-70
2023/02/12 03:27:44;;;;;;;;;32.50;27.50;;;;;9.96;62.00;100143.66;7737410;22;96664;-70
2023/02/12 03:30:53;;;;;;;;;30.25;27.25;;;;;9.97;61.79;100134.53;7708509;22;96796;-70
2023/02/12 03:34:08;;;;;;;;;28.75;25.25;;;;;10.01;61.61;100122.38;7737645;22;96224;-70
2023/02/12 03:37:19;;;;;;;;;28.50;26.00;;;;;10.04;61.72;100142.72;7736285;22;96496;-70
2023/02/12 03:40:30;;;;;;;;;28.80;28.00;;;;;10.02;61.71;100151.81;7737454;22;96478;-70
2023/02/12 03:43:44;;;;;;;;;33.00;29.25;;;;;10.04;61.58;100157.03;7737553;22;96446;-70
2023/02/12 03:46:56;;;;;;;;;36.20;31.60;;;;;10.04;61.42;100164.25;7736578;22;96501;-70
2023/02/12 03:50:10;;;;;;;;;35.60;30.20;;;;;10.01;61.32;100162.78;7737113;22;96963;-70
2023/02/12 03:53:13;;;;;;;;;35.00;30.60;;;;;10.00;61.47;100164.66;7737025;22;96714;-70
2023/02/12 03:56:22;;;;;;;;;34.00;30.00;;;;;10.00;61.37;100170.03;7737447;22;97006;-70
2023/02/12 03:59:26;;;;;;;;;33.00;30.00;;;;;9.99;61.44;100181.81;7737691;22;96593;-69
2023/02/12 04:02:30;;;;;;;;;35.00;30.00;;;;;9.98;61.42;100198.16;7709622;22;96711;-70
2023/02/12 04:05:34;;;;;;;;;36.50;31.00;;;;;9.96;61.34;100201.06;7737166;22;96328;-70
2023/02/12 04:08:38;;;;;;;;;38.00;32.00;;;;;9.93;61.48;100198.72;7736728;22;96978;-70
2023/02/12 04:11:54;;;;;;;;;33.67;29.67;;;;;9.94;61.48;100204.97;7737550;22;96391;-70
2023/02/12 04:15:12;;;;;;;;;33.60;30.00;;;;;9.97;61.24;100199.19;7737047;22;96663;-70
2023/02/12 04:18:21;;;;;;;;;33.00;27.00;;;;;9.96;61.03;100208.31;7737491;22;96460;-69
2023/02/12 04:21:43;;;;;;;;;31.50;30.00;;;;;9.86;61.31;100208.59;7737264;22;96254;-70
2023/02/12 04:24:59;;;;;;;;;30.75;28.75;;;;;9.96;61.10;100227.19;7737194;22;96345;-70
2023/02/12 04:28:13;;;;;;;;;35.80;30.00;;;;;9.79;60.80;100209.50;7710256;22;96417;-70
2023/02/12 04:31:24;;;;;;;;;29.00;26.00;;;;;9.95;60.74;100233.56;7737289;22;96243;-69
2023/02/12 04:34:35;;;;;;;;;29.20;26.20;;;;;9.95;61.02;100231.72;7708084;22;99828;-70
2023/02/12 04:37:44;;;;;;;;;22.75;19.25;;;;;9.88;61.22;100232.63;7737065;22;96306;-70
2023/02/12 04:40:49;;;;;;;;;25.60;24.00;;;;;9.89;60.94;100242.38;7708916;22;98363;-70
2023/02/12 04:43:52;;;;;;;;;25.25;19.25;;;;;9.88;61.16;100244.25;7736893;22;96736;-69
2023/02/12 04:46:56;;;;;;;;;21.60;20.00;;;;;9.88;60.63;100260.41;7736624;22;96364;-69
2023/02/12 04:49:59;;;;;;;;;23.00;21.00;;;;;9.91;59.95;100265.44;7737079;22;96400;-70
2023/02/12 04:53:04;;;;;;;;;18.00;18.00;;;;;9.90;59.80;100262.94;7709188;22;96756;-70
2023/02/12 04:56:11;;;;;;;;;19.75;18.00;;;;;9.89;59.25;100275.56;7684623;22;97400;-70
2023/02/12 04:59:15;;;;;;;;;17.20;15.00;;;;;9.89;58.99;100280.09;7709117;22;96782;-70
2023/02/12 05:02:18;;;;;;;;;17.60;16.60;;;;;9.93;58.42;100293.03;7736119;22;96508;-69
2023/02/12 05:05:22;;;;;;;;;15.80;14.40;;;;;9.96;58.27;100303.44;7709373;22;96586;-70
2023/02/12 05:08:26;;;;;;;;;14.00;13.00;;;;;9.98;57.92;100309.47;7736802;22;96628;-70
2023/02/12 05:11:30;;;;;;;;;15.40;15.00;;;;;9.95;58.02;100309.84;7737292;22;96260;-70
2023/02/12 05:14:33;;;;;;;;;17.75;16.25;;;;;9.88;58.25;100325.06;7737372;22;96297;-70
2023/02/12 05:17:37;;;;;;;;;17.40;15.00;;;;;9.96;57.93;100332.25;7737451;22;96212;-70
2023/02/12 05:20:40;;;;;;;;;13.80;13.80;;;;;9.91;57.85;100329.25;7736558;22;96199;-70
2023/02/12 05:23:44;;;;;;;;;17.50;17.00;;;;;9.88;58.00;100332.31;7736872;22;96274;-70
2023/02/12 05:26:49;;;;;;;;;13.00;12.00;;;;;9.80;58.37;100325.13;7737589;22;96273;-70
2023/02/12 05:29:52;;;;;;;;;16.00;15.00;;;;;9.82;57.73;100333.06;7709326;22;98332;-70
2023/02/12 05:32:56;;;;;;;;;15.20;14.20;;;;;9.82;57.78;100343.81;7736387;22;96136;-70
2023/02/12 05:36:04;;;;;;;;;15.80;15.40;;;;;9.79;57.95;100349.56;7736819;22;96322;-70
2023/02/12 05:39:08;;;;;;;;;18.50;16.50;;;;;9.80;57.19;100359.31;7736987;22;96257;-70
2023/02/12 05:42:12;;;;;;;;;17.20;15.80;;;;;9.79;57.20;100360.34;7736472;22;96865;-70
2023/02/12 05:45:15;;;;;;;;;14.40;14.00;;;;;9.76;57.01;100366.09;7736327;22;96361;-69
2023/02/12 05:48:18;;;;;;;;;17.00;16.60;;;;;9.71;57.26;100371.19;7709808;22;96410;-70
2023/02/12 05:51:24;;;;;;;;;13.00;12.00;;;;;9.65;56.38;100379.97;7707086;22;96668;-70
2023/02/12 05:54:29;;;;;;;;;14.00;13.00;;;;;9.64;56.17;100380.97;7736425;22;96256;-70
2023/02/12 05:57:32;;;;;;;;;15.75;13.25;;;;;9.60;56.65;100387.75;7734629;22;96463;-70
2023/02/12 06:00:35;;;;;;;;;15.00;13.00;;;;;9.55;55.96;100401.75;7734128;22;96311;-70
2023/02/12 06:03:39;;;;;;;;;14.00;12.00;;;;;9.47;56.40;100393.72;7733938;22;96356;-70
2023/02/12 06:06:43;;;;;;;;;13.40;12.40;;;;;9.48;55.82;100403.50;7708124;22;96591;-70
2023/02/12 06:09:48;;;;;;;;;13.00;11.50;;;;;9.48;55.77;100404.31;7735364;22;96338;-70
2023/02/12 06:12:54;;;;;;;;;13.50;13.00;;;;;9.46;56.06;100405.50;7736115;22;96506;-70
2023/02/12 06:15:58;;;;;;;;;14.00;12.00;;;;;9.46;55.95;100413.59;7736911;22;96246;-70
2023/02/12 06:19:05;;;;;;;;;13.00;11.75;;;;;9.42;56.09;100423.03;7735792;22;96150;-70
2023/02/12 06:22:08;;;;;;;;;15.75;14.00;;;;;9.44;55.91;100426.38;7736578;22;97775;-70
2023/02/12 06:25:13;;;;;;;;;11.00;10.25;;;;;9.40;55.94;100425.91;7735925;22;96764;-71
2023/02/12 06:28:16;;;;;;;;;10.40;10.00;;;;;9.36;55.84;100426.44;7735232;22;96181;-69
2023/02/12 06:31:22;;;;;;;;;10.60;9.20;;;;;9.41;55.67;100432.97;7734457;22;96537;-70
2023/02/12 06:34:26;;;;;;;;;12.00;11.00;;;;;9.43;55.12;100443.56;7735450;22;96259;-70
2023/02/12 06:37:29;;;;;;;;;11.25;10.50;;;;;9.42;54.69;100448.09;7736691;22;96294;-69
2023/02/12 06:40:34;;;;;;;;;9.80;8.40;;;;;9.35;54.86;100452.50;7708872;22;96985;-70
2023/02/12 06:43:38;;;;;;;;;12.00;11.00;;;;;9.34;54.92;100458.06;7737315;22;97392;-70
2023/02/12 06:46:41;;;;;;;;;13.00;11.00;;;;;9.31;54.84;100459.25;7737148;22;96474;-70
2023/02/12 06:49:44;;;;;;;;;12.00;10.20;;;;;9.16;54.35;100435.94;7735463;22;96384;-71
2023/02/12 06:52:48;;;;;;;;;11.60;11.60;;;;;9.26;54.36;100458.94;7733857;22;96389;-70
2023/02/12 06:55:53;;;;;;;;;13.00;13.00;;;;;9.27;54.07;100457.09;7735943;22;96352;-70
2023/02/12 06:58:59;;;;;;;;;11.00;10.00;;;;;9.33;53.72;100462.63;7735868;22;96413;-70
2023/02/12 07:02:03;;;;;;;;;12.00;11.25;;;;;9.46;53.67;100473.66;7736483;22;96191;-70
2023/02/12 07:05:06;;;;;;;;;12.00;11.00;;;;;9.43;53.59;100476.69;7736147;22;96360;-70
2023/02/12 07:08:10;;;;;;;;;13.00;13.00;;;;;9.46;53.71;100476.34;7736533;22;96524;-70
2023/02/12 07:11:15;;;;;;;;;15.60;14.00;;;;;9.36;54.23;100473.03;7734692;22;96603;-70
2023/02/12 07:14:19;;;;;;;;;11.00;11.00;;;;;9.41;54.30;100480.56;7707173;22;96740;-71
2023/02/12 07:17:22;;;;;;;;;13.00;12.00;;;;;9.48;54.18;100498.53;7706954;22;96368;-69
2023/02/12 07:20:26;;;;;;;;;12.20;11.00;;;;;9.49;53.80;100502.06;7734260;22;96836;-70
2023/02/12 07:23:29;;;;;;;;;10.25;9.25;;;;;9.45;53.95;100506.97;7734155;22;96384;-70
2023/02/12 07:26:34;;;;;;;;;11.00;10.40;;;;;9.44;53.41;100516.06;7734480;22;96894;-70
2023/02/12 07:29:37;;;;;;;;;13.25;12.00;;;;;9.43;53.27;100519.75;7735332;22;96301;-70
2023/02/12 07:32:40;;;;;;;;;11.00;10.40;;;;;9.41;53.23;100513.72;7732617;22;97259;-70
2023/02/12 07:35:44;;;;;;;;;9.50;9.50;;;;;9.45;53.24;100520.44;7733738;22;96356;-70
2023/02/12 07:38:47;;;;;;;;;10.25;10.00;;;;;9.46;53.25;100519.44;7734775;22;96329;-70
2023/02/12 07:41:52;;;;;;;;;10.80;9.80;;;;;9.46;52.44;100535.56;7736554;22;97438;-70
2023/02/12 07:44:55;;;;;;;;;11.80;10.20;;;;;9.37;52.11;100525.00;7737032;22;96339;-70
2023/02/12 07:47:59;;;;;;;;;12.25;12.00;;;;;9.36;52.12;100534.94;7736239;22;96237;-70
2023/02/12 07:51:07;;;;;;;;;8.00;8.00;;;;;9.33;51.50;100526.38;7734594;22;96404;-70
2023/02/12 07:54:11;;;;;;;;;13.50;12.75;;;;;9.12;51.47;100519.72;7735589;22;96533;-70
2023/02/12 07:57:16;;;;;;;;;10.20;9.20;;;;;9.36;51.20;100544.88;7734317;22;96288;-69
2023/02/12 08:00:20;;;;;;;;;8.00;7.60;;;;;9.36;50.95;100551.09;7735733;22;96953;-69
2023/02/12 08:03:23;;;;;;;;;8.00;7.00;;;;;9.33;50.87;100554.16;7682619;22;96647;-69
2023/02/12 08:06:30;;;;;;;;;11.00;10.00;;;;;9.37;50.52;100563.53;7737031;22;96961;-70
2023/02/12 08:09:33;;;;;;;;;9.00;9.00;;;;;9.39;49.60;100569.56;7737291;22;96727;-69
2023/02/12 08:12:38;;;;;;;;;9.00;8.00;;;;;9.37;49.91;100574.31;7731567;22;96370;-69
2023/02/12 08:15:41;;;;;;;;;6.00;6.00;;;;;9.35;49.49;100568.25;7737387;22;96787;-69
2023/02/12 08:18:45;;;;;;;;;9.75;8.25;;;;;9.33;49.26;100575.69;7737222;22;96427;-69
2023/02/12 08:21:50;;;;;;;;;7.75;7.75;;;;;9.39;49.80;100580.34;7736475;22;96946;-68
2023/02/12 08:24:53;;;;;;;;;9.00;9.00;;;;;9.40;49.57;100575.81;7709844;22;96446;-69
2023/02/12 08:27:58;;;;;;;;;8.40;8.40;;;;;9.44;48.82;100566.38;7736232;22;96714;-69
2023/02/12 08:31:02;;;;;;;;;6.00;6.00;;;;;9.47;47.79;100564.19;7735824;22;96552;-69
2023/02/12 08:34:06;;;;;;;;;8.00;7.00;;;;;9.50;46.77;100577.28;7737512;22;96273;-70
2023/02/12 08:37:09;;;;;;;;;8.40;8.40;;;;;9.53;47.23;100582.31;7737228;22;96263;-70
2023/02/12 08:40:13;;;;;;;;;8.00;6.25;;;;;9.64;46.78;100580.25;7736072;22;96392;-69
2023/02/12 08:43:18;;;;;;;;;8.00;8.00;;;;;9.71;45.52;100576.72;7737241;22;96290;-69
2023/02/12 08:46:24;;;;;;;;;7.50;7.00;;;;;9.78;45.90;100582.22;7736352;22;96495;-70
2023/02/12 08:49:29;;;;;;;;;6.33;6.33;;;;;9.77;46.49;100584.09;7736136;22;96210;-69
2023/02/12 08:52:34;;;;;;;;;8.00;7.00;;;;;9.63;46.44;100560.56;7736422;22;96404;-69
2023/02/12 08:55:38;;;;;;;;;8.00;7.00;;;;;9.78;44.43;100590.28;7736119;22;96325;-69
2023/02/12 08:58:43;;;;;;;;;8.00;7.00;;;;;9.56;44.01;100567.69;7735448;22;96553;-69
2023/02/12 09:01:50;;;;;;;;;6.50;6.00;;;;;9.76;44.69;100589.66;7709666;22;96433;-69
2023/02/12 09:04:54;;;;;;;;;5.60;5.00;;;;;9.82;44.74;100602.44;7735968;22;96253;-69
2023/02/12 09:07:57;;;;;;;;;7.00;7.00;;;;;9.86;43.50;100611.84;7736068;22;96287;-69
2023/02/12 09:11:04;;;;;;;;;7.60;6.00;;;;;9.81;44.21;100633.06;7736352;22;96224;-69
2023/02/12 09:14:12;;;;;;;;;7.60;7.00;;;;;9.77;44.10;100629.03;7737075;22;96567;-69
2023/02/12 09:17:15;;;;;;;;;10.00;10.00;;;;;9.78;44.47;100641.47;7737214;22;96552;-69
2023/02/12 09:20:19;;;;;;;;;8.75;8.75;;;;;9.66;43.21;100642.88;7736897;22;96912;-70
2023/02/12 09:23:22;;;;;;;;;9.20;9.20;;;;;9.61;43.76;100651.47;7736495;22;96165;-69
2023/02/12 09:26:26;;;;;;;;;7.75;7.00;;;;;9.58;43.92;100655.34;7735575;22;96333;-70
2023/02/12 09:29:30;;;;;;;;;9.00;8.00;;;;;9.63;44.59;100657.50;7734846;22;96306;-70
2023/02/12 09:32:34;;;;;;;;;9.00;8.20;;;;;9.68;43.97;100663.22;7734475;22;96186;-68
2023/02/12 09:35:38;;;;;;;;;7.50;7.50;;;;;9.70;43.35;100661.22;7707303;22;99642;-69
2023/02/12 09:38:42;;;;;;;;;8.00;8.00;;;;;9.69;43.80;100664.91;7734688;22;96519;-69
2023/02/12 09:42:16;;;;;;;;;7.00;7.00;;;;;9.64;43.51;100663.75;7733645;22;96282;-68
2023/02/12 09:45:24;;;;;;;;;8.00;7.00;;;;;9.58;42.64;100668.81;7734260;22;96204;-69
2023/02/12 09:48:42;;;;;;;;;9.00;9.00;;;;;9.69;43.30;100667.59;7734646;22;96284;-70
2023/02/12 09:51:52;;;;;;;;;9.00;9.00;;;;;9.79;43.24;100656.63;7734245;22;96479;-70
2023/02/12 09:54:56;;;;;;;;;8.60;8.60;;;;;9.85;43.18;100651.41;7707066;22;96570;-69
2023/02/12 09:58:04;;;;;;;;;9.60;9.20;;;;;9.98;43.24;100657.06;7732349;22;97181;-69
2023/02/12 10:01:13;;;;;;;;;7.00;7.00;;;;;10.14;42.37;100661.53;7732806;22;97010;-70
2023/02/12 10:04:17;;;;;;;;;8.00;8.00;;;;;10.34;42.35;100659.28;7734740;22;96251;-69
2023/02/12 10:07:32;;;;;;;;;8.80;8.00;;;;;10.50;41.64;100663.75;7735765;22;96378;-69
2023/02/12 10:10:49;;;;;;;;;9.00;8.60;;;;;10.75;41.47;100659.88;7735839;22;97016;-69
2023/02/12 10:14:05;;;;;;;;;11.00;10.00;;;;;11.04;40.44;100657.28;7707396;22;98395;-69
2023/02/12 10:17:19;;;;;;;;;8.60;8.00;;;;;11.27;39.69;100649.13;7736202;22;96684;-69
2023/02/12 10:20:40;;;;;;;;;9.00;8.20;;;;;11.58;39.98;100673.31;7736560;22;96525;-70
2023/02/12 10:24:01;;;;;;;;;8.75;8.50;;;;;11.86;39.25;100668.97;7736787;22;96358;-70
2023/02/12 10:27:12;;;;;;;;;8.00;8.00;;;;;12.02;38.26;100679.56;7735935;22;96208;-70
2023/02/12 10:30:21;;;;;;;;;10.60;10.60;;;;;12.23;37.87;100672.56;7735205;22;96301;-70
2023/02/12 10:33:31;;;;;;;;;7.80;6.80;;;;;13.28;36.26;100673.72;7725603;22;97118;-69
2023/02/12 10:36:42;;;;;;;;;9.00;8.00;;;;;14.44;34.80;100678.38;7734185;22;96476;-67
2023/02/12 10:39:50;;;;;;;;;9.00;8.00;;;;;15.18;33.32;100676.47;7733871;22;96335;-69
2023/02/12 10:42:56;;;;;;;;;9.00;9.00;;;;;15.68;32.19;100674.19;7705837;22;96601;-69
2023/02/12 10:45:59;;;;;;;;;9.40;9.00;;;;;15.99;31.59;100677.88;7732540;22;96386;-69
2023/02/12 10:49:06;;;;;;;;;8.00;8.00;;;;;17.07;29.45;100681.56;7732899;22;96382;-69
2023/02/12 10:52:16;;;;;;;;;10.00;9.00;;;;;17.48;28.15;100678.31;7705145;22;96793;-69
2023/02/12 10:55:25;;;;;;;;;8.00;7.80;;;;;18.72;27.29;100679.88;7733602;22;96303;-69
2023/02/12 10:58:29;;;;;;;;;7.00;7.00;;;;;18.89;26.10;100676.28;7732527;22;96854;-70
2023/02/12 11:01:35;;;;;;;;;7.60;7.60;;;;;18.81;27.00;100679.34;7731979;22;96561;-69
2023/02/12 11:04:39;;;;;;;;;8.40;8.40;;;;;18.71;26.60;100670.03;7733620;22;96768;-70
2023/02/12 11:07:49;;;;;;;;;13.00;11.60;;;;;18.98;26.27;100666.69;7705701;22;98215;-70
2023/02/12 11:10:52;;;;;;;;;8.00;7.00;;;;;20.23;25.55;100666.41;7734900;22;97001;-70
2023/02/12 11:13:59;;;;;;;;;9.00;9.00;;;;;20.52;24.50;100678.25;7706756;22;96672;-69
2023/02/12 11:17:03;;;;;;;;;8.20;8.00;;;;;20.84;24.68;100664.88;7735656;22;96484;-69
2023/02/12 11:20:26;;;;;;;;;8.00;7.50;;;;;20.59;24.58;100674.28;7735183;22;96526;-70
2023/02/12 11:23:32;;;;;;;;;10.00;10.00;;;;;21.23;23.85;100669.47;7737073;22;96341;-70
2023/02/12 11:26:36;;;;;;;;;11.40;11.00;;;;;22.43;21.71;100671.56;7737354;22;97578;-70
2023/02/12 11:29:39;;;;;;;;;10.00;9.40;;;;;22.67;21.96;100672.09;7735624;22;96451;-71
2023/02/12 11:32:43;;;;;;;;;9.40;8.00;;;;;22.18;22.31;100663.81;7735500;22;96318;-69
2023/02/12 11:35:53;;;;;;;;;11.00;10.00;;;;;21.60;22.88;100676.13;7735209;22;96502;-68
2023/02/12 11:38:58;;;;;;;;;9.00;9.00;;;;;22.09;22.85;100679.06;7735680;22;96371;-68
2023/02/12 11:42:05;;;;;;;;;7.00;7.00;;;;;23.22;21.36;100669.09;7687401;22;96554;-67
2023/02/12 11:45:17;;;;;;;;;8.00;8.00;;;;;24.41;20.14;100674.91;7728356;22;96226;-67
2023/02/12 11:48:24;;;;;;;;;9.00;8.50;;;;;25.30;19.09;100663.56;7753845;22;96240;-67
2023/02/12 11:51:32;;;;;;;;;10.40;9.00;;;;;26.08;18.64;100665.97;7752497;22;96275;-68
2023/02/12 11:54:41;;;;;;;;;8.00;8.00;;;;;26.50;17.83;100671.06;7751932;22;96144;-68
2023/02/12 11:57:47;;;;;;;;;8.00;8.00;;;;;26.59;18.38;100655.53;7749348;22;96413;-68
2023/02/12 12:00:56;;;;;;;;;10.00;9.00;;;;;26.10;18.45;100664.56;7735612;22;96384;-68
2023/02/12 12:04:05;;;;;;;;;10.40;9.40;;;;;26.24;18.00;100656.53;7734780;22;96196;-67
2023/02/12 12:07:17;;;;;;;;;9.00;9.00;;;;;26.67;17.72;100668.78;7735355;22;96504;-67
2023/02/12 12:10:36;;;;;;;;;11.75;10.75;;;;;26.16;17.93;100663.44;7733762;22;96306;-67
2023/02/12 12:13:47;;;;;;;;;9.20;9.20;;;;;26.36;17.93;100654.28;7735357;22;96271;-68
2023/02/12 12:20:23;;;;;;;;;9.60;9.60;;;;;25.79;18.43;100650.00;7706463;22;96848;-67
2023/02/12 12:23:35;;;;;;;;;7.00;7.00;;;;;25.23;18.48;100643.66;7707161;22;97403;-67
2023/02/12 12:26:44;;;;;;;;;8.50;8.50;;;;;25.47;18.85;100638.41;7734406;22;96381;-67
2023/02/12 12:29:55;;;;;;;;;9.60;9.60;;;;;26.01;18.13;100640.53;7682686;22;98848;-67
2023/02/12 12:33:02;;;;;;;;;10.00;8.25;;;;;26.69;18.16;100636.94;7703488;22;97416;-68
2023/02/12 12:36:58;;;;;;;;;9.40;9.00;;;;;27.07;17.76;100629.78;7735925;22;96374;-67
2023/02/12 12:40:23;;;;;;;;;11.00;10.75;;;;;26.95;17.15;100642.34;7706554;22;96414;-67
2023/02/12 12:43:43;;;;;;;;;10.60;10.00;;;;;26.73;17.55;100638.00;7707212;22;97207;-67
2023/02/12 12:47:00;;;;;;;;;10.00;10.00;;;;;26.23;17.71;100643.81;7707978;22;96435;-67
2023/02/12 12:50:24;;;;;;;;;11.00;10.00;;;;;25.64;18.65;100621.56;7733670;22;96340;-67
2023/02/12 12:53:38;;;;;;;;;14.00;13.00;;;;;24.94;18.40;100637.84;7733785;22;97238;-67
2023/02/12 12:56:54;;;;;;;;;10.00;10.00;;;;;24.43;19.36;100644.31;7732463;22;97202;-67
2023/02/12 13:00:08;;;;;;;;;14.40;13.40;;;;;23.96;19.90;100636.06;7733745;22;97052;-67
2023/02/12 13:03:52;;;;;;;;;11.60;10.60;;;;;23.30;20.22;100635.63;7708321;22;96679;-67
2023/02/12 13:07:13;;;;;;;;;10.75;10.00;;;;;22.89;20.65;100621.50;7736150;22;96309;-67
2023/02/12 13:10:27;;;;;;;;;10.00;9.00;;;;;22.69;20.92;100631.41;7734817;22;96113;-66
2023/02/12 13:13:36;;;;;;;;;12.40;11.00;;;;;22.37;21.26;100628.59;7735336;22;96536;-67
2023/02/12 13:16:46;;;;;;;;;11.00;9.20;;;;;22.08;21.91;100647.22;7734310;22;96287;-66
2023/02/12 13:20:00;;;;;;;;;12.20;12.00;;;;;21.61;22.26;100650.34;7735126;22;96359;-66
2023/02/12 13:23:11;;;;;;;;;14.00;12.60;;;;;20.91;22.96;100646.41;7735181;22;97001;-66
2023/02/12 13:26:20;;;;;;;;;11.00;10.60;;;;;20.68;23.42;100655.53;7734616;22;96502;-66
2023/02/12 13:29:29;;;;;;;;;10.00;10.00;;;;;20.49;23.57;100634.91;7736062;22;96462;-66
2023/02/12 13:32:39;;;;;;;;;13.40;12.40;;;;;20.03;24.21;100638.59;7707822;22;96453;-67
2023/02/12 13:35:47;;;;;;;;;12.00;11.00;;;;;19.62;24.83;100654.09;7735897;22;96808;-67
2023/02/12 13:38:56;;;;;;;;;12.33;11.00;;;;;19.43;25.37;100647.88;7735598;22;96934;-66
2023/02/12 13:42:13;;;;;;;;;13.00;12.50;;;;;19.13;25.23;100651.75;7734477;22;97011;-66
2023/02/12 13:45:29;;;;;;;;;16.00;15.00;;;;;18.63;26.33;100649.31;7732713;22;96542;-66
2023/02/12 13:48:47;;;;;;;;;14.60;14.20;;;;;18.08;26.79;100668.47;7735487;22;96213;-66
2023/02/12 13:51:56;;;;;;;;;15.00;13.00;;;;;17.65;27.42;100656.78;7733475;22;96249;-66
2023/02/12 13:55:19;;;;;;;;;14.00;13.20;;;;;17.59;27.87;100654.97;7733885;22;96049;-66
2023/02/12 13:58:39;;;;;;;;;14.40;14.00;;;;;17.65;27.92;100649.41;7735187;22;96311;-66
2023/02/12 14:01:48;;;;;;;;;15.00;13.20;;;;;17.61;27.79;100648.22;7735623;22;96336;-66
2023/02/12 14:04:58;;;;;;;;;20.00;19.00;;;;;17.63;27.99;100650.72;7735695;22;96375;-65
2023/02/12 14:08:04;;;;;;;;;16.60;15.00;;;;;17.64;27.78;100655.94;7735660;22;96309;-65
2023/02/12 14:11:12;;;;;;;;;17.60;15.60;;;;;17.26;28.15;100634.22;7709321;22;96171;-65
2023/02/12 14:14:26;;;;;;;;;18.00;16.00;;;;;17.26;28.47;100660.66;7708019;22;96929;-65
2023/02/12 14:18:04;;;;;;;;;13.60;13.00;;;;;16.79;28.62;100654.72;7735676;22;96337;-65
2023/02/12 14:21:41;;;;;;;;;16.20;15.00;;;;;16.23;29.63;100659.16;7670352;22;96213;-65
2023/02/12 14:24:54;;;;;;;;;18.00;17.00;;;;;15.72;30.11;100657.22;7707743;22;96692;-65
2023/02/12 14:28:05;;;;;;;;;15.00;14.50;;;;;15.53;30.47;100661.66;7736516;22;96204;-65
2023/02/12 14:31:36;;;;;;;;;16.25;16.00;;;;;15.22;30.58;100658.69;7736187;22;96259;-65
2023/02/12 14:34:41;;;;;;;;;19.00;17.20;;;;;15.04;31.12;100653.06;7735810;22;96243;-65